Time;durP1;ratioP1;P1;durP2;ratioP2;P2;SDS_P1;SDS_P2;PMS_P1;PMS_P2;Temp;Humidity;BMP_temperature;BMP_pressure;BME280_temperature;BME280_humidity;BME280_pressure;Samples;Min_cycle;Max_cycle;Signal;HPM_P1;HPM_P2
2022/06/28 00:01:17;;;;;;;1.05;0.70;;;24.40;51.30;;;;;;5087442;28;45344;-90
2022/06/28 00:03:43;;;;;;;1.48;0.70;;;24.40;51.40;;;;;;5085529;28;45292;-91
2022/06/28 00:06:10;;;;;;;1.40;0.70;;;24.40;51.50;;;;;;5085459;28;45254;-91
2022/06/28 00:08:37;;;;;;;0.75;0.60;;;24.40;51.50;;;;;;5087719;28;44652;-89
2022/06/28 00:11:05;;;;;;;0.50;0.50;;;24.30;52.10;;;;;;5068504;28;45229;-92
2022/06/28 00:13:32;;;;;;;0.73;0.63;;;24.30;51.40;;;;;;5071333;28;45402;-90
2022/06/28 00:16:07;;;;;;;0.80;0.80;;;24.30;52.10;;;;;;5070730;28;46249;-90
2022/06/28 00:18:34;;;;;;;0.68;0.57;;;24.30;51.50;;;;;;5070853;28;45346;-89
2022/06/28 00:21:02;;;;;;;0.70;0.70;;;24.30;51.50;;;;;;5068507;28;45306;-91
2022/06/28 00:23:29;;;;;;;0.60;0.60;;;24.30;51.40;;;;;;5071053;28;45209;-90
2022/06/28 00:25:56;;;;;;;0.70;0.70;;;24.30;51.50;;;;;;5070822;28;46636;-91
2022/06/28 00:28:24;;;;;;;0.80;0.68;;;24.30;51.50;;;;;;5070718;28;45247;-92
2022/06/28 00:30:51;;;;;;;0.60;0.60;;;24.30;51.50;;;;;;5071181;28;45213;-90
2022/06/28 00:33:18;;;;;;;1.75;0.70;;;24.30;51.50;;;;;;5070978;28;45173;-91
2022/06/28 00:35:45;;;;;;;1.40;0.70;;;24.30;51.50;;;;;;5070851;28;45496;-90
2022/06/28 00:38:12;;;;;;;1.17;0.60;;;24.20;51.50;;;;;;5070785;28;44832;-91
2022/06/28 00:40:45;;;;;;;1.08;0.80;;;24.20;51.50;;;;;;5070844;28;45231;-90
2022/06/28 00:43:12;;;;;;;1.48;0.70;;;24.20;51.50;;;;;;5070886;28;45359;-91
2022/06/28 00:45:41;;;;;;;0.50;0.50;;;24.20;51.50;;;;;;5067831;28;45347;-91
2022/06/28 00:48:08;;;;;;;1.27;0.90;;;24.20;51.50;;;;;;5070444;28;45252;-91
2022/06/28 00:50:35;;;;;;;0.50;0.50;;;24.10;51.50;;;;;;5070468;28;45305;-91
2022/06/28 00:53:03;;;;;;;0.70;0.70;;;24.10;51.50;;;;;;5068210;28;45316;-91
2022/06/28 00:55:30;;;;;;;0.80;0.80;;;24.10;51.50;;;;;;5069634;28;45269;-91
2022/06/28 00:57:57;;;;;;;0.82;0.82;;;24.10;51.50;;;;;;5061999;28;45304;-90
2022/06/28 01:00:24;;;;;;;0.60;0.60;;;24.10;51.50;;;;;;5070430;28;45230;-91
2022/06/28 01:02:52;;;;;;;0.70;0.70;;;24.10;51.60;;;;;;5070655;28;45436;-91
2022/06/28 01:05:19;;;;;;;0.77;0.73;;;24.10;51.50;;;;;;5070655;28;46810;-92
2022/06/28 01:07:46;;;;;;;0.88;0.80;;;24.10;51.60;;;;;;5067846;28;45295;-91
2022/06/28 01:10:13;;;;;;;0.60;0.60;;;24.10;51.50;;;;;;5055841;28;45216;-90
2022/06/28 01:12:40;;;;;;;0.60;0.60;;;24.10;51.50;;;;;;5050865;28;45420;-89
2022/06/28 01:15:08;;;;;;;0.68;0.52;;;24.00;51.50;;;;;;5049742;28;45489;-92
2022/06/28 01:17:35;;;;;;;1.38;0.70;;;24.00;51.60;;;;;;5047366;28;45253;-90
2022/06/28 01:20:03;;;;;;;0.60;0.60;;;24.00;51.50;;;;;;5047658;28;45253;-90
2022/06/28 01:22:30;;;;;;;0.70;0.70;;;24.00;51.50;;;;;;5050281;28;45202;-89
2022/06/28 01:24:59;;;;;;;0.52;0.52;;;24.00;51.60;;;;;;5039264;28;46622;-89
2022/06/28 01:27:25;;;;;;;0.60;0.60;;;24.00;51.50;;;;;;5047134;28;45298;-89
2022/06/28 01:29:52;;;;;;;0.80;0.80;;;24.00;51.60;;;;;;5047314;28;45174;-91
2022/06/28 01:32:19;;;;;;;1.25;0.80;;;24.00;51.60;;;;;;5050216;28;45206;-89
2022/06/28 01:34:46;;;;;;;0.70;0.70;;;24.00;51.60;;;;;;5050034;28;45485;-92
2022/06/28 01:37:13;;;;;;;0.80;0.80;;;23.90;51.70;;;;;;5049821;28;45284;-91
2022/06/28 01:39:40;;;;;;;0.70;0.70;;;23.90;51.60;;;;;;5049976;28;45358;-92
2022/06/28 01:42:08;;;;;;;0.60;0.60;;;23.90;51.60;;;;;;5050179;28;45453;-91
2022/06/28 01:44:35;;;;;;;0.65;0.60;;;23.90;52.10;;;;;;5046815;28;45407;-89
2022/06/28 01:47:02;;;;;;;0.50;0.50;;;23.90;52.00;;;;;;5049002;28;45401;-92
2022/06/28 01:49:29;;;;;;;0.70;0.70;;;23.90;51.90;;;;;;5063748;28;45285;-90
2022/06/28 01:51:56;;;;;;;0.65;0.65;;;23.90;51.60;;;;;;5090662;28;45323;-91
2022/06/28 01:54:23;;;;;;;0.60;0.60;;;23.90;51.50;;;;;;5090177;28;45250;-91
2022/06/28 01:56:50;;;;;;;0.82;0.70;;;23.90;51.40;;;;;;5090169;28;45179;-89
2022/06/28 01:59:18;;;;;;;1.17;1.00;;;23.90;51.50;;;;;;5087229;28;45295;-90
2022/06/28 02:01:45;;;;;;;0.93;0.90;;;23.90;51.50;;;;;;5090125;28;45424;-92
2022/06/28 02:04:19;;;;;;;1.40;1.13;;;23.90;51.30;;;;;;5089756;28;45520;-89
2022/06/28 02:06:46;;;;;;;0.55;0.55;;;23.80;51.40;;;;;;5089946;28;45313;-92
2022/06/28 02:09:13;;;;;;;1.00;0.70;;;23.80;51.40;;;;;;5084131;28;45283;-91
2022/06/28 02:11:39;;;;;;;0.70;0.70;;;23.80;51.40;;;;;;5066916;28;45359;-90
2022/06/28 02:14:06;;;;;;;0.70;0.70;;;23.80;51.40;;;;;;5069142;28;45430;-90
2022/06/28 02:16:35;;;;;;;0.60;0.60;;;23.80;51.40;;;;;;5069516;28;45321;-89
2022/06/28 02:19:01;;;;;;;0.70;0.70;;;23.80;51.40;;;;;;5069365;28;45211;-90
2022/06/28 02:21:29;;;;;;;0.60;0.60;;;23.80;51.40;;;;;;5069640;28;44718;-90
2022/06/28 02:23:56;;;;;;;0.70;0.70;;;23.80;51.40;;;;;;5069023;28;45467;-89
2022/06/28 02:26:23;;;;;;;2.25;0.70;;;23.80;51.40;;;;;;5069317;28;45280;-91
2022/06/28 02:28:50;;;;;;;0.65;0.60;;;23.80;51.30;;;;;;5066386;28;45288;-90
2022/06/28 02:31:17;;;;;;;0.60;0.60;;;23.70;51.40;;;;;;5069205;28;45211;-90
2022/06/28 02:33:45;;;;;;;0.63;0.63;;;23.70;51.30;;;;;;5068338;28;45243;-91
2022/06/28 02:41:40;;;;;;;0.63;0.63;;;23.70;51.50;;;;;;5066728;28;45229;-90
2022/06/28 02:44:07;;;;;;;0.60;0.60;;;23.70;51.40;;;;;;5066180;28;46650;-90
2022/06/28 02:46:34;;;;;;;0.55;0.55;;;23.70;51.40;;;;;;5066144;28;45398;-91
2022/06/28 02:49:02;;;;;;;0.80;0.80;;;23.70;51.30;;;;;;5066074;28;45304;-91
2022/06/28 02:51:29;;;;;;;0.68;0.68;;;23.70;51.50;;;;;;5068790;28;45202;-92
2022/06/28 02:53:56;;;;;;;0.70;0.70;;;23.70;51.40;;;;;;5055705;28;45357;-90
2022/06/28 02:56:23;;;;;;;0.60;0.60;;;23.70;51.60;;;;;;5048578;28;45380;-89
2022/06/28 02:58:50;;;;;;;0.70;0.70;;;23.70;51.50;;;;;;5048858;28;45323;-91
2022/06/28 03:01:17;;;;;;;0.65;0.63;;;23.70;51.50;;;;;;5045999;28;45472;-90
2022/06/28 03:03:43;;;;;;;0.80;0.80;;;23.70;51.50;;;;;;5048556;28;45228;-91
2022/06/28 03:06:12;;;;;;;0.50;0.50;;;23.70;51.50;;;;;;5048314;28;45195;-91
2022/06/28 03:08:39;;;;;;;0.65;0.65;;;23.70;51.50;;;;;;5049575;28;45315;-91
2022/06/28 03:11:05;;;;;;;0.70;0.70;;;23.60;51.50;;;;;;5066162;28;45418;-89
2022/06/28 03:13:32;;;;;;;0.70;0.70;;;23.70;51.60;;;;;;5065984;28;45449;-89
2022/06/28 03:15:59;;;;;;;0.80;0.60;;;23.60;51.50;;;;;;5068532;28;45334;-91
2022/06/28 03:18:26;;;;;;;0.68;0.68;;;23.70;51.60;;;;;;5068907;28;45381;-89
2022/06/28 03:20:53;;;;;;;0.60;0.60;;;23.60;51.60;;;;;;5069206;28;45379;-92
2022/06/28 03:23:21;;;;;;;0.60;0.60;;;23.60;51.50;;;;;;5068906;28;45416;-90
2022/06/28 03:25:48;;;;;;;0.60;0.60;;;23.60;51.50;;;;;;5068845;28;45209;-89
2022/06/28 03:28:15;;;;;;;0.68;0.68;;;23.60;51.60;;;;;;5065998;28;45253;-90
2022/06/28 03:30:42;;;;;;;1.05;0.88;;;23.60;51.60;;;;;;5066710;28;45311;-92
2022/06/28 03:33:08;;;;;;;0.68;0.68;;;23.60;51.70;;;;;;5069356;28;46550;-92
2022/06/28 03:35:35;;;;;;;0.60;0.60;;;23.60;51.70;;;;;;5065483;28;45325;-89
2022/06/28 03:38:02;;;;;;;0.47;0.47;;;23.50;51.60;;;;;;5066072;28;45461;-90
2022/06/28 03:40:30;;;;;;;0.60;0.60;;;23.60;51.70;;;;;;5069928;28;45285;-91
2022/06/28 03:42:57;;;;;;;0.80;0.80;;;23.50;51.70;;;;;;5061059;28;46317;-90
2022/06/28 03:45:24;;;;;;;0.75;0.75;;;23.60;51.70;;;;;;5065345;28;45317;-91
2022/06/28 03:47:51;;;;;;;0.73;0.73;;;23.50;51.70;;;;;;5069081;28;45278;-91
2022/06/28 03:50:18;;;;;;;1.80;0.90;;;23.50;51.70;;;;;;5067767;28;45388;-90
2022/06/28 03:52:45;;;;;;;0.75;0.75;;;23.50;51.70;;;;;;5068362;28;46722;-89
2022/06/28 03:55:12;;;;;;;0.95;0.60;;;23.50;51.60;;;;;;5068176;28;45229;-89
2022/06/28 03:57:40;;;;;;;0.50;0.50;;;23.50;51.60;;;;;;5068449;28;45158;-89
2022/06/28 04:00:08;;;;;;;0.80;0.80;;;23.50;51.70;;;;;;5065522;28;45451;-90
2022/06/28 04:02:35;;;;;;;1.08;0.77;;;23.50;51.60;;;;;;5067622;28;46771;-91
2022/06/28 04:05:02;;;;;;;0.82;0.77;;;23.50;51.60;;;;;;5065466;28;45194;-92
2022/06/28 04:07:28;;;;;;;0.68;0.68;;;23.50;51.60;;;;;;5065600;28;45301;-89
2022/06/28 04:09:55;;;;;;;0.70;0.70;;;23.50;51.70;;;;;;5056157;28;45515;-88
2022/06/28 04:12:22;;;;;;;0.60;0.60;;;23.50;51.70;;;;;;5047784;28;45185;-89
2022/06/28 04:14:50;;;;;;;0.63;0.63;;;23.50;51.80;;;;;;5047489;28;45314;-89
2022/06/28 04:17:17;;;;;;;0.63;0.63;;;23.50;51.80;;;;;;5049226;28;45273;-90
2022/06/28 04:19:44;;;;;;;1.95;0.70;;;23.40;51.80;;;;;;5047678;28;45270;-89
2022/06/28 04:22:11;;;;;;;0.63;0.63;;;23.40;51.90;;;;;;5044830;28;46858;-90
2022/06/28 04:24:38;;;;;;;0.95;0.90;;;23.50;51.80;;;;;;5043981;28;45297;-91
2022/06/28 04:27:05;;;;;;;0.68;0.68;;;23.50;51.90;;;;;;5044905;28;45245;-89
2022/06/28 04:29:32;;;;;;;0.68;0.68;;;23.50;51.80;;;;;;5047736;28;45297;-91
2022/06/28 04:32:01;;;;;;;0.70;0.70;;;23.40;51.80;;;;;;5044484;28;45487;-90
2022/06/28 04:34:28;;;;;;;1.75;0.70;;;23.40;51.80;;;;;;5047508;28;45384;-90
2022/06/28 04:36:54;;;;;;;0.80;0.80;;;23.40;51.80;;;;;;5047563;28;45257;-89
2022/06/28 04:39:21;;;;;;;0.65;0.65;;;23.50;51.80;;;;;;5047708;28;45321;-91
2022/06/28 04:41:48;;;;;;;1.38;0.88;;;23.50;51.90;;;;;;5047114;28;46379;-90
2022/06/28 04:44:15;;;;;;;0.63;0.63;;;23.50;51.80;;;;;;5047120;28;45302;-91
2022/06/28 04:46:42;;;;;;;1.13;0.85;;;23.50;51.80;;;;;;5047320;28;45443;-91
2022/06/28 04:49:10;;;;;;;0.95;0.70;;;23.50;51.80;;;;;;5058415;28;45464;-89
2022/06/28 04:51:37;;;;;;;1.27;0.70;;;23.50;51.90;;;;;;5085183;28;45615;-90
2022/06/28 04:54:04;;;;;;;0.80;0.80;;;23.40;51.80;;;;;;5090894;28;45308;-91
2022/06/28 04:56:31;;;;;;;3.50;0.80;;;23.50;51.80;;;;;;5087738;28;45143;-90
2022/06/28 04:58:58;;;;;;;0.68;0.68;;;23.40;51.70;;;;;;5091538;28;45283;-90
2022/06/28 05:01:25;;;;;;;0.65;0.65;;;23.40;51.80;;;;;;5092071;28;46659;-88
2022/06/28 05:03:52;;;;;;;0.80;0.70;;;23.40;51.90;;;;;;5091171;28;45159;-90
2022/06/28 05:06:20;;;;;;;1.25;0.77;;;23.40;52.00;;;;;;5091090;28;45126;-90
2022/06/28 05:08:47;;;;;;;2.97;0.77;;;23.40;52.00;;;;;;5086220;28;45364;-92
2022/06/28 05:11:14;;;;;;;0.68;0.68;;;23.40;51.90;;;;;;5070400;28;45340;-90
2022/06/28 05:13:40;;;;;;;0.70;0.70;;;23.40;52.60;;;;;;5067805;28;44627;-89
2022/06/28 05:16:07;;;;;;;0.73;0.73;;;23.40;52.00;;;;;;5068535;28;45107;-89
2022/06/28 05:18:34;;;;;;;0.77;0.77;;;23.40;52.00;;;;;;5071271;28;45343;-91
2022/06/28 05:21:01;;;;;;;0.65;0.57;;;23.40;52.10;;;;;;5076584;27;45491;-90
2022/06/28 05:23:29;;;;;;;0.60;0.60;;;23.40;52.00;;;;;;5071468;28;44749;-90
2022/06/28 05:25:56;;;;;;;0.80;0.80;;;23.40;52.00;;;;;;5071482;28;45345;-89
2022/06/28 05:28:23;;;;;;;0.88;0.88;;;23.40;52.00;;;;;;5073544;28;45292;-90
2022/06/28 05:30:50;;;;;;;0.93;0.82;;;23.40;52.10;;;;;;5067778;28;45354;-91
2022/06/28 05:33:18;;;;;;;3.60;1.10;;;23.40;52.00;;;;;;5082541;27;45326;-91
2022/06/28 05:35:45;;;;;;;0.98;0.93;;;23.40;52.10;;;;;;5093628;27;44647;-92
2022/06/28 05:38:12;;;;;;;0.90;0.90;;;23.40;52.10;;;;;;5093498;27;44836;-90
2022/06/28 05:40:40;;;;;;;1.02;0.98;;;23.40;52.00;;;;;;5093885;27;45506;-90
2022/06/28 05:43:07;;;;;;;1.88;1.00;;;23.40;52.10;;;;;;5090935;27;44730;-90
2022/06/28 05:45:34;;;;;;;3.17;1.30;;;23.40;52.20;;;;;;5090989;27;44758;-90
2022/06/28 05:48:01;;;;;;;3.08;1.30;;;23.40;54.70;;;;;;5093827;27;44901;-92
2022/06/28 05:50:28;;;;;;;2.50;1.10;;;23.30;55.50;;;;;;5093251;27;46666;-91
2022/06/28 05:52:55;;;;;;;5.53;1.55;;;23.20;56.00;;;;;;5090643;27;44791;-91
2022/06/28 05:55:22;;;;;;;3.47;1.50;;;23.10;56.30;;;;;;5090985;27;44751;-90
2022/06/28 05:57:50;;;;;;;6.82;1.40;;;23.10;56.40;;;;;;5093546;27;44776;-92
2022/06/28 06:00:17;;;;;;;2.25;1.33;;;23.00;56.70;;;;;;5093066;27;45300;-92
2022/06/28 06:02:44;;;;;;;3.70;1.13;;;23.00;56.80;;;;;;5090754;27;44752;-91
2022/06/28 06:05:11;;;;;;;1.42;1.17;;;23.00;56.70;;;;;;5093072;27;44831;-91
2022/06/28 06:07:38;;;;;;;2.08;1.25;;;23.00;57.20;;;;;;5093542;27;44945;-93
2022/06/28 06:10:06;;;;;;;1.55;1.05;;;23.00;57.00;;;;;;5079122;27;46963;-91
2022/06/28 06:12:33;;;;;;;2.95;1.90;;;23.00;57.00;;;;;;5072864;27;44729;-91
2022/06/28 06:15:01;;;;;;;1.33;1.17;;;23.00;57.00;;;;;;5063666;27;45314;-89
2022/06/28 06:17:28;;;;;;;2.25;1.30;;;23.00;57.40;;;;;;5049818;28;45645;-91
2022/06/28 06:19:55;;;;;;;1.80;1.20;;;23.00;57.70;;;;;;5050004;28;48375;-92
2022/06/28 06:22:22;;;;;;;2.47;1.73;;;23.00;57.80;;;;;;5047029;28;45171;-92
2022/06/28 06:24:49;;;;;;;1.40;1.10;;;22.90;57.40;;;;;;5049592;28;45199;-91
2022/06/28 06:27:16;;;;;;;1.42;1.00;;;23.00;57.40;;;;;;5049465;28;45328;-92
2022/06/28 06:29:42;;;;;;;4.03;1.23;;;22.90;57.30;;;;;;5048675;28;46549;-91
2022/06/28 06:32:11;;;;;;;4.05;1.40;;;22.90;57.60;;;;;;5048843;28;45278;-91
2022/06/28 06:34:38;;;;;;;3.58;1.35;;;22.90;57.90;;;;;;5049057;28;45144;-92
2022/06/28 06:37:05;;;;;;;1.92;1.50;;;22.90;57.80;;;;;;5049417;28;45361;-93
2022/06/28 06:39:32;;;;;;;1.10;1.00;;;22.90;58.70;;;;;;5048573;28;45678;-92
2022/06/28 06:41:59;;;;;;;3.13;1.33;;;22.80;58.50;;;;;;5052691;28;44682;-92
2022/06/28 06:44:27;;;;;;;6.57;1.38;;;22.80;58.30;;;;;;5053975;28;44680;-92
2022/06/28 06:46:55;;;;;;;7.68;1.30;;;22.90;58.30;;;;;;5051397;28;45324;-92
2022/06/28 06:49:23;;;;;;;3.22;1.30;;;22.90;58.60;;;;;;5044798;28;45661;-94
2022/06/28 06:51:51;;;;;;;1.50;1.10;;;22.90;58.40;;;;;;5052650;28;44735;-93
2022/06/28 06:54:18;;;;;;;1.55;1.38;;;22.90;58.60;;;;;;5050983;28;45210;-92
2022/06/28 06:56:46;;;;;;;5.03;1.40;;;22.90;58.90;;;;;;5049209;28;45540;-91
2022/06/28 06:59:16;;;;;;;3.50;1.20;;;22.90;58.90;;;;;;5050386;28;45305;-93
2022/06/28 07:01:43;;;;;;;3.25;1.30;;;22.90;59.00;;;;;;5048671;28;45076;-92
2022/06/28 07:04:10;;;;;;;1.65;1.45;;;22.90;59.20;;;;;;5050045;28;45388;-91
2022/06/28 07:06:38;;;;;;;1.45;1.30;;;22.90;59.40;;;;;;5045105;28;45411;-91
2022/06/28 07:09:05;;;;;;;2.83;1.40;;;22.80;59.40;;;;;;5048406;28;48284;-93
2022/06/28 07:11:33;;;;;;;2.22;1.30;;;22.90;59.40;;;;;;5048759;28;44973;-93
2022/06/28 07:14:00;;;;;;;1.73;1.23;;;22.90;59.00;;;;;;5048914;28;45481;-90
2022/06/28 07:16:27;;;;;;;2.17;1.08;;;22.90;58.80;;;;;;5046358;28;45281;-91
2022/06/28 07:18:54;;;;;;;1.10;1.10;;;22.90;59.00;;;;;;5048564;28;47304;-91
2022/06/28 07:21:21;;;;;;;1.35;1.05;;;22.90;58.90;;;;;;5045584;28;45255;-92
2022/06/28 07:23:49;;;;;;;3.35;1.30;;;22.90;58.40;;;;;;5048869;28;44623;-91
2022/06/28 07:26:18;;;;;;;2.10;1.00;;;23.00;58.50;;;;;;5048870;28;45323;-92
2022/06/28 07:28:45;;;;;;;1.58;1.20;;;23.00;58.30;;;;;;5047902;28;46582;-92
2022/06/28 07:31:12;;;;;;;1.80;1.40;;;23.00;58.70;;;;;;5048076;28;45227;-91
2022/06/28 07:33:39;;;;;;;1.45;1.20;;;23.00;58.80;;;;;;5045759;28;45238;-90
2022/06/28 07:36:06;;;;;;;1.20;0.90;;;23.10;58.70;;;;;;5048713;28;45328;-91
2022/06/28 07:38:33;;;;;;;1.23;1.13;;;23.10;58.50;;;;;;5047896;28;45442;-92
2022/06/28 07:41:01;;;;;;;2.35;1.20;;;23.10;58.50;;;;;;5048514;28;45317;-91
2022/06/28 07:43:28;;;;;;;1.00;1.00;;;23.20;58.50;;;;;;5046408;28;45199;-91
2022/06/28 07:45:55;;;;;;;1.50;1.40;;;23.20;58.50;;;;;;5049423;28;45385;-90
2022/06/28 07:48:22;;;;;;;3.40;1.30;;;23.20;58.60;;;;;;5045410;28;45425;-92
2022/06/28 07:53:33;;;;;;;1.60;1.35;;;23.10;58.90;;;;;;5048937;28;45245;-92
2022/06/28 07:56:02;;;;;;;1.00;1.00;;;23.10;59.60;;;;;;5046708;28;45324;-92
2022/06/28 07:58:29;;;;;;;1.13;1.02;;;23.20;59.00;;;;;;5046810;28;45642;-90
2022/06/28 08:00:56;;;;;;;1.20;1.10;;;23.10;59.70;;;;;;5047489;28;45431;-91
2022/06/28 08:03:23;;;;;;;2.47;1.20;;;23.20;59.30;;;;;;5048442;28;45257;-91
2022/06/28 08:05:50;;;;;;;1.40;1.30;;;23.20;59.50;;;;;;5048014;28;45428;-91
2022/06/28 08:08:17;;;;;;;4.63;1.52;;;23.20;59.70;;;;;;5047625;28;45771;-91
2022/06/28 08:10:44;;;;;;;2.13;1.20;;;23.20;59.30;;;;;;5065682;28;45032;-90
2022/06/28 08:13:15;;;;;;;2.55;1.58;;;23.20;59.60;;;;;;5068001;28;45299;-89
2022/06/28 08:15:42;;;;;;;2.08;1.50;;;23.20;60.20;;;;;;5068878;28;44985;-90
2022/06/28 08:18:09;;;;;;;1.65;1.40;;;23.20;60.30;;;;;;5068179;28;45434;-91
2022/06/28 08:20:36;;;;;;;2.42;1.23;;;23.30;60.10;;;;;;5065380;28;45296;-91
2022/06/28 08:23:03;;;;;;;2.65;1.63;;;23.30;60.10;;;;;;5067682;28;45264;-91
2022/06/28 08:25:30;;;;;;;1.60;1.45;;;23.40;59.70;;;;;;5065678;28;45425;-90
2022/06/28 08:27:57;;;;;;;3.83;1.60;;;23.30;59.30;;;;;;5065492;28;45249;-91
2022/06/28 08:30:27;;;;;;;1.38;1.20;;;23.30;59.80;;;;;;5067525;28;45199;-92
2022/06/28 08:32:54;;;;;;;1.38;1.20;;;23.30;59.80;;;;;;5071607;28;45431;-90
2022/06/28 08:35:21;;;;;;;1.52;1.40;;;23.40;59.70;;;;;;5072886;28;45233;-90
2022/06/28 08:37:48;;;;;;;1.85;1.33;;;23.40;59.60;;;;;;5073257;28;45360;-91
2022/06/28 08:40:14;;;;;;;1.30;1.25;;;23.40;59.50;;;;;;5070606;28;45255;-86
2022/06/28 08:42:48;;;;;;;2.47;1.45;;;23.40;59.50;;;;;;5070661;28;45277;-87
2022/06/28 08:45:18;;;;;;;1.40;1.30;;;23.40;59.30;;;;;;5067649;28;45177;-88
2022/06/28 08:47:47;;;;;;;1.67;1.50;;;23.50;59.20;;;;;;5070217;28;45463;-89
2022/06/28 08:50:16;;;;;;;2.00;1.50;;;23.50;59.20;;;;;;5070239;28;45274;-89
2022/06/28 08:52:43;;;;;;;1.52;1.42;;;23.50;59.30;;;;;;5065056;28;45165;-88
2022/06/28 08:55:10;;;;;;;1.55;1.42;;;23.60;59.10;;;;;;5050215;28;45485;-89
2022/06/28 08:57:37;;;;;;;1.85;1.50;;;23.60;59.00;;;;;;5050343;28;45500;-89
2022/06/28 09:00:05;;;;;;;1.50;1.40;;;23.60;58.90;;;;;;5050168;28;45232;-88
2022/06/28 09:02:32;;;;;;;1.98;1.65;;;23.70;59.00;;;;;;5050424;28;45178;-88
2022/06/28 09:05:00;;;;;;;1.60;1.48;;;23.70;58.80;;;;;;5049834;28;45353;-89
2022/06/28 09:07:27;;;;;;;1.40;1.30;;;23.70;58.30;;;;;;5050034;28;46332;-87
2022/06/28 09:09:54;;;;;;;4.03;1.48;;;23.70;57.80;;;;;;5061167;28;45225;-88
2022/06/28 09:12:21;;;;;;;1.20;1.20;;;23.70;57.80;;;;;;5067663;28;45299;-89
2022/06/28 09:14:48;;;;;;;1.45;1.35;;;23.70;58.10;;;;;;5067279;28;45202;-88
2022/06/28 09:17:20;;;;;;;2.55;1.33;;;23.70;58.10;;;;;;5067512;28;45523;-89
2022/06/28 09:19:47;;;;;;;1.70;1.38;;;23.80;58.00;;;;;;5070221;28;45254;-88
2022/06/28 09:22:29;;;;;;;1.45;1.35;;;23.90;57.90;;;;;;5069650;28;45325;-89
2022/06/28 09:24:55;;;;;;;1.65;1.23;;;23.90;58.20;;;;;;5070431;28;45421;-88
2022/06/28 09:27:28;;;;;;;1.70;1.50;;;23.90;58.10;;;;;;5069970;28;46617;-89
2022/06/28 09:29:55;;;;;;;1.48;1.30;;;23.90;58.60;;;;;;5067282;28;45316;-89
2022/06/28 09:32:26;;;;;;;1.77;1.50;;;24.00;57.90;;;;;;5070049;28;45463;-89
2022/06/28 09:34:54;;;;;;;1.35;1.13;;;24.00;58.50;;;;;;5067575;28;45262;-88
2022/06/28 09:37:34;;;;;;;1.85;1.48;;;24.10;57.70;;;;;;5069722;28;45419;-89
2022/06/28 09:40:13;;;;;;;3.15;1.40;;;24.10;57.30;;;;;;5069585;28;45179;-89
2022/06/28 09:42:40;;;;;;;1.40;1.30;;;24.10;57.40;;;;;;5069542;28;45233;-87
2022/06/28 09:45:08;;;;;;;1.40;1.30;;;24.00;57.30;;;;;;5066383;28;45298;-88
2022/06/28 09:47:35;;;;;;;1.40;1.38;;;24.00;57.70;;;;;;5066949;28;45422;-86
2022/06/28 09:50:06;;;;;;;2.47;1.27;;;24.00;57.00;;;;;;5068164;28;45159;-87
2022/06/28 09:52:34;;;;;;;2.05;1.20;;;24.10;57.20;;;;;;5066001;28;45262;-88
2022/06/28 09:55:01;;;;;;;1.10;1.10;;;24.10;57.20;;;;;;5069120;28;45326;-86
2022/06/28 09:57:28;;;;;;;1.40;1.30;;;24.20;57.10;;;;;;5066078;28;45270;-88
2022/06/28 09:59:55;;;;;;;1.83;1.33;;;24.20;56.80;;;;;;5069161;28;45249;-87
2022/06/28 10:02:22;;;;;;;2.10;1.40;;;24.20;56.80;;;;;;5066669;28;45135;-88
2022/06/28 10:04:49;;;;;;;1.50;1.40;;;24.30;56.60;;;;;;5066052;28;45373;-85
2022/06/28 10:07:16;;;;;;;1.33;1.23;;;24.20;56.40;;;;;;5068472;28;45513;-86
2022/06/28 10:09:44;;;;;;;1.40;1.30;;;24.20;56.40;;;;;;5059093;28;45189;-87
2022/06/28 10:15:05;;;;;;;1.42;1.30;;;24.30;56.00;;;;;;5049049;28;45280;-87
2022/06/28 10:17:42;;;;;;;1.55;1.15;;;24.30;56.00;;;;;;5045953;28;45583;-86
2022/06/28 10:20:16;;;;;;;1.38;1.30;;;24.30;55.80;;;;;;5045622;28;45352;-86
2022/06/28 10:22:43;;;;;;;3.55;1.40;;;24.40;55.80;;;;;;5053164;28;45308;-87
2022/06/28 10:25:22;;;;;;;1.77;1.10;;;24.40;56.40;;;;;;5057326;28;45503;-86
2022/06/28 10:27:49;;;;;;;1.30;1.25;;;24.50;55.70;;;;;;5048137;28;46763;-86
2022/06/28 10:30:24;;;;;;;1.30;1.20;;;24.60;55.40;;;;;;5048291;28;45309;-87
2022/06/28 10:32:52;;;;;;;1.20;1.10;;;24.70;54.80;;;;;;5047883;28;45193;-87
2022/06/28 10:36:03;;;;;;;1.05;1.00;;;24.70;54.70;;;;;;5048349;28;45344;-87
2022/06/28 10:38:30;;;;;;;1.13;1.02;;;24.80;54.70;;;;;;5047865;28;45757;-86
2022/06/28 10:41:14;;;;;;;2.05;1.30;;;24.90;54.30;;;;;;5047722;28;45456;-86
2022/06/28 10:43:49;;;;;;;1.30;1.20;;;24.90;53.70;;;;;;5047675;28;45283;-86
2022/06/28 10:46:16;;;;;;;1.85;1.10;;;24.80;53.70;;;;;;5048162;28;45356;-87
2022/06/28 10:49:08;;;;;;;0.98;0.98;;;24.80;53.50;;;;;;5046080;28;48558;-85
2022/06/28 10:51:36;;;;;;;1.90;1.10;;;24.90;53.70;;;;;;5035782;28;45398;-85
2022/06/28 10:54:07;;;;;;;1.45;1.00;;;25.00;53.20;;;;;;5047537;28;45242;-87
2022/06/28 10:56:41;;;;;;;1.10;1.00;;;25.00;53.10;;;;;;5045051;28;45314;-88
2022/06/28 10:59:09;;;;;;;1.98;1.48;;;25.00;52.90;;;;;;5048125;28;47588;-89
2022/06/28 11:01:56;;;;;;;1.33;1.27;;;25.00;53.10;;;;;;5045218;28;45248;-88
2022/06/28 11:04:24;;;;;;;1.50;1.13;;;25.10;52.70;;;;;;5048108;28;45301;-88
2022/06/28 11:06:52;;;;;;;1.75;1.50;;;25.10;52.80;;;;;;5048426;28;45230;-87
2022/06/28 11:09:24;;;;;;;1.30;1.20;;;25.10;52.40;;;;;;5047398;28;47001;-88
2022/06/28 11:12:11;;;;;;;1.08;1.08;;;25.10;52.10;;;;;;5049197;28;45215;-87
2022/06/28 11:14:56;;;;;;;1.35;1.25;;;25.10;51.80;;;;;;5051720;28;45360;-87
2022/06/28 11:17:24;;;;;;;1.23;1.02;;;25.00;51.90;;;;;;5047854;28;45430;-88
2022/06/28 11:19:53;;;;;;;1.08;1.08;;;25.00;52.10;;;;;;5047909;28;45250;-88
2022/06/28 11:22:27;;;;;;;1.20;1.10;;;25.00;52.00;;;;;;5047235;28;45361;-86
2022/06/28 11:24:54;;;;;;;1.10;1.10;;;25.00;52.00;;;;;;5047338;28;45301;-88
2022/06/28 11:27:22;;;;;;;1.70;1.20;;;25.00;52.20;;;;;;5047831;28;45433;-87
2022/06/28 11:29:54;;;;;;;1.10;1.00;;;25.10;52.10;;;;;;5047587;28;45698;-88
2022/06/28 11:32:22;;;;;;;3.25;1.17;;;25.10;51.90;;;;;;5046703;28;45414;-89
2022/06/28 11:34:56;;;;;;;1.35;1.20;;;25.20;51.80;;;;;;5045058;28;45332;-90
2022/06/28 11:37:23;;;;;;;1.27;1.20;;;25.20;51.80;;;;;;5046820;28;45479;-89
2022/06/28 11:39:53;;;;;;;1.10;1.10;;;25.20;51.50;;;;;;5046933;28;45460;-88
2022/06/28 11:42:21;;;;;;;1.00;1.00;;;25.20;51.50;;;;;;5046890;28;45424;-89
2022/06/28 11:44:48;;;;;;;1.92;1.30;;;25.20;51.80;;;;;;5047001;28;45221;-86
2022/06/28 11:47:16;;;;;;;1.10;1.10;;;25.30;51.80;;;;;;5047227;28;45229;-86
2022/06/28 11:49:43;;;;;;;2.40;1.30;;;25.30;51.80;;;;;;5066890;28;45305;-87
2022/06/28 11:52:14;;;;;;;2.78;1.40;;;25.30;51.60;;;;;;5087898;28;45289;-87
2022/06/28 11:54:42;;;;;;;2.45;1.30;;;25.30;51.50;;;;;;5068774;28;44889;-87
2022/06/28 11:57:14;;;;;;;1.40;1.20;;;25.30;51.40;;;;;;5065035;28;45296;-87
2022/06/28 11:59:54;;;;;;;1.45;1.35;;;25.30;51.50;;;;;;5067309;28;45254;-89
2022/06/28 12:02:40;;;;;;;1.42;1.33;;;25.40;51.40;;;;;;5067483;28;45340;-89
2022/06/28 12:05:07;;;;;;;1.80;1.20;;;25.40;51.60;;;;;;5068249;28;45367;-90
2022/06/28 12:07:35;;;;;;;3.45;1.60;;;25.50;51.80;;;;;;5070176;28;45499;-88
2022/06/28 12:10:02;;;;;;;1.45;1.30;;;25.50;51.30;;;;;;5068181;28;46746;-93
2022/06/28 12:12:32;;;;;;;1.55;1.30;;;25.50;51.30;;;;;;5093761;28;45264;-93
2022/06/28 12:15:00;;;;;;;2.58;1.38;;;25.50;50.80;;;;;;5091787;28;45308;-86
2022/06/28 12:17:27;;;;;;;1.40;1.30;;;25.50;50.70;;;;;;5092002;28;45193;-86
2022/06/28 12:19:55;;;;;;;2.22;1.40;;;25.50;50.90;;;;;;5091226;28;45568;-89
2022/06/28 12:22:25;;;;;;;3.10;1.25;;;25.60;51.10;;;;;;5091306;28;45333;-93
2022/06/28 12:24:54;;;;;;;2.25;1.30;;;25.60;51.30;;;;;;5092170;28;44637;-92
2022/06/28 12:27:22;;;;;;;1.50;1.40;;;25.70;51.50;;;;;;5088014;28;45404;-85
2022/06/28 12:29:49;;;;;;;1.52;1.42;;;25.70;51.20;;;;;;5090459;28;45382;-92
2022/06/28 12:32:19;;;;;;;6.03;1.50;;;25.80;51.00;;;;;;5092038;28;45249;-90
2022/06/28 12:34:46;;;;;;;580.90;428.90;;;25.80;50.90;;;;;;5093871;28;45365;-86
2022/06/28 12:37:13;;;;;;;378.63;338.70;;;25.80;50.80;;;;;;5093078;28;45214;-86
2022/06/28 12:39:40;;;;;;;108.88;97.13;;;25.90;50.80;;;;;;5081253;28;46801;-86
2022/06/28 12:42:07;;;;;;;40.63;36.22;;;26.00;50.70;;;;;;5070553;28;45349;-86
2022/06/28 12:44:34;;;;;;;17.40;15.60;;;26.00;50.80;;;;;;5070777;28;45249;-92
2022/06/28 12:47:02;;;;;;;7.28;6.57;;;26.10;50.30;;;;;;5070649;28;45376;-88
2022/06/28 12:49:30;;;;;;;4.30;3.28;;;26.10;50.10;;;;;;5074145;28;47195;-93
2022/06/28 12:51:57;;;;;;;9.25;2.97;;;26.20;49.70;;;;;;5077987;28;45258;-89
2022/06/28 12:54:24;;;;;;;4.38;2.83;;;26.20;49.80;;;;;;5074717;28;45297;-86
2022/06/28 12:56:51;;;;;;;2.80;2.47;;;26.20;49.40;;;;;;5067822;28;45311;-87
2022/06/28 12:59:18;;;;;;;6.00;5.18;;;26.20;49.40;;;;;;5071915;28;46348;-87
2022/06/28 13:01:45;;;;;;;6.82;5.30;;;26.20;50.30;;;;;;5072589;28;45258;-87